createdAt,value
2019-05-17T00:01:32.835Z,60.70
2019-05-17T00:04:07.173Z,61.10
2019-05-17T00:06:38.781Z,61.60
2019-05-17T00:09:09.174Z,61.90
2019-05-17T00:11:38.511Z,62.10
2019-05-17T00:14:07.505Z,62.30
2019-05-17T00:16:37.530Z,62.50
2019-05-17T00:19:07.488Z,62.60
2019-05-17T00:21:36.955Z,62.50
2019-05-17T00:24:06.661Z,62.60
2019-05-17T00:26:36.286Z,62.60
2019-05-17T00:29:06.826Z,62.50
2019-05-17T00:31:36.991Z,62.60
2019-05-17T00:34:07.308Z,62.60
2019-05-17T00:36:37.453Z,63.60
2019-05-17T00:39:07.532Z,63.50
2019-05-17T00:41:37.447Z,63.60
2019-05-17T00:44:06.785Z,63.70
2019-05-17T00:46:37.276Z,64.00
2019-05-17T00:49:06.728Z,64.40
2019-05-17T00:51:36.947Z,64.50
2019-05-17T00:54:06.814Z,64.60
2019-05-17T00:56:37.219Z,64.80
2019-05-17T00:59:07.435Z,64.80
2019-05-17T01:01:36.541Z,64.80
2019-05-17T01:04:06.818Z,65.20
2019-05-17T01:06:37.588Z,65.70
2019-05-17T01:09:07.930Z,66.00
2019-05-17T01:11:36.744Z,65.90
2019-05-17T01:14:06.847Z,66.40
2019-05-17T01:16:36.764Z,67.30
2019-05-17T01:19:06.907Z,67.80
2019-05-17T01:21:36.762Z,67.60
2019-05-17T01:24:06.882Z,67.40
2019-05-17T01:26:37.351Z,67.00
2019-05-17T01:29:06.793Z,67.70
2019-05-17T01:31:37.393Z,67.80
2019-05-17T01:34:07.362Z,68.40
2019-05-17T01:36:37.041Z,69.00
2019-05-17T01:39:17.036Z,69.10
2019-05-17T01:41:37.381Z,69.10
2019-05-17T01:44:07.490Z,69.10
2019-05-17T01:46:37.019Z,69.80
2019-05-17T01:49:06.874Z,69.20
2019-05-17T01:51:37.074Z,68.90
2019-05-17T01:54:06.942Z,68.70
2019-05-17T01:56:36.928Z,69.20
2019-05-17T01:59:06.876Z,69.70
2019-05-17T02:01:37.120Z,70.20
2019-05-17T02:04:06.795Z,70.60
2019-05-17T02:06:36.694Z,70.80
2019-05-17T02:09:07.316Z,70.80
2019-05-17T02:11:37.375Z,70.90
2019-05-17T02:14:07.059Z,70.60
2019-05-17T02:16:37.633Z,70.80
2019-05-17T02:19:06.816Z,71.90
2019-05-17T02:21:38.569Z,72.90
2019-05-17T02:24:07.986Z,73.20
2019-05-17T02:26:37.478Z,72.80
2019-05-17T02:29:06.369Z,72.80
2019-05-17T02:31:35.625Z,72.10
2019-05-17T02:34:04.430Z,72.00
2019-05-17T02:36:33.423Z,72.00
2019-05-17T02:39:03.576Z,72.00
2019-05-17T02:41:33.238Z,72.90
2019-05-17T02:44:02.994Z,73.40
2019-05-17T02:46:33.879Z,73.10
2019-05-17T02:49:02.992Z,73.10
2019-05-17T02:51:32.633Z,73.10
2019-05-17T02:54:04.193Z,73.20
2019-05-17T02:56:32.779Z,73.20
2019-05-17T02:59:03.640Z,73.60
2019-05-17T03:01:33.453Z,74.30
2019-05-17T03:04:03.953Z,74.30
2019-05-17T03:06:33.132Z,74.10
2019-05-17T03:09:22.856Z,74.90
2019-05-17T03:11:56.275Z,75.20
2019-05-17T03:14:23.065Z,74.50
2019-05-17T03:16:53.690Z,74.30
2019-05-17T03:19:23.564Z,74.50
2019-05-17T03:21:53.559Z,75.10
2019-05-17T03:24:22.817Z,75.20
2019-05-17T03:26:52.692Z,75.30
2019-05-17T03:29:22.734Z,74.60
2019-05-17T03:31:59.669Z,75.20
2019-05-17T03:34:26.590Z,75.60
2019-05-17T03:36:56.467Z,75.30
2019-05-17T03:39:24.769Z,74.90
2019-05-17T03:41:53.728Z,74.60
2019-05-17T03:44:22.727Z,75.50
2019-05-17T03:46:53.161Z,75.70
2019-05-17T03:49:22.554Z,75.70
2019-05-17T03:51:53.230Z,75.70
2019-05-17T03:54:22.763Z,76.80
2019-05-17T03:56:53.252Z,77.90
2019-05-17T03:59:24.187Z,80.30
2019-05-17T04:01:53.093Z,82.00
2019-05-17T04:04:22.887Z,82.60
2019-05-17T04:06:52.572Z,83.00
2019-05-17T04:09:22.416Z,83.70
2019-05-17T04:11:53.508Z,84.60
2019-05-17T04:14:22.482Z,84.70
2019-05-17T04:16:53.718Z,84.70
2019-05-17T04:19:23.009Z,85.10
2019-05-17T04:21:53.726Z,85.40
2019-05-17T04:24:23.043Z,86.20
2019-05-17T04:26:52.583Z,87.20
2019-05-17T04:29:22.983Z,87.90
2019-05-17T04:31:54.268Z,87.70
2019-05-17T04:34:22.482Z,87.40
2019-05-17T04:36:52.235Z,86.70
2019-05-17T04:39:22.637Z,86.50
2019-05-17T04:41:54.764Z,86.50
2019-05-17T04:44:23.152Z,87.40
2019-05-17T04:46:53.657Z,87.00
2019-05-17T04:49:24.277Z,86.10
2019-05-17T04:51:53.315Z,86.20
2019-05-17T04:54:22.751Z,86.20
2019-05-17T04:56:53.153Z,85.90
2019-05-17T04:59:24.360Z,86.40
2019-05-17T05:02:13.227Z,86.30
2019-05-17T05:04:43.742Z,86.70
2019-05-17T05:07:13.723Z,87.10
2019-05-17T05:09:43.218Z,86.50
2019-05-17T05:12:12.640Z,87.00
2019-05-17T05:14:43.180Z,86.90
2019-05-17T05:17:12.772Z,86.70
2019-05-17T05:19:42.275Z,87.60
2019-05-17T05:22:13.460Z,87.60
2019-05-17T05:24:42.338Z,87.30
2019-05-17T05:27:11.984Z,86.90
2019-05-17T05:29:41.620Z,86.50
2019-05-17T05:32:11.812Z,86.40
2019-05-17T05:34:42.746Z,86.10
2019-05-17T05:37:12.584Z,86.50
2019-05-17T05:39:42.383Z,86.30
2019-05-17T05:42:13.842Z,85.80
2019-05-17T05:44:41.667Z,85.00
2019-05-17T05:47:11.673Z,83.50
2019-05-17T05:49:42.468Z,83.40
2019-05-17T05:52:12.540Z,83.10
2019-05-17T05:54:41.460Z,82.80
2019-05-17T05:57:12.468Z,82.70
2019-05-17T05:59:42.646Z,81.80
2019-05-17T06:02:12.366Z,80.70
2019-05-17T06:04:42.394Z,80.60
2019-05-17T06:07:12.887Z,80.20
2019-05-17T06:09:42.378Z,81.00
2019-05-17T06:12:23.343Z,81.10
2019-05-17T06:14:42.208Z,80.40
2019-05-17T06:17:12.601Z,80.00
2019-05-17T06:19:42.219Z,80.30
2019-05-17T06:22:11.979Z,79.20
2019-05-17T06:24:42.507Z,78.90
2019-05-17T06:27:12.486Z,78.20
2019-05-17T06:29:41.577Z,78.40
2019-05-17T06:32:11.848Z,78.30
2019-05-17T06:34:42.220Z,78.20
2019-05-17T06:37:12.924Z,77.80
2019-05-17T06:39:42.018Z,78.10
2019-05-17T06:42:12.097Z,78.70
2019-05-17T06:44:41.733Z,79.30
2019-05-17T06:47:11.915Z,79.50
2019-05-17T06:49:42.454Z,80.40
2019-05-17T06:52:11.701Z,80.60
2019-05-17T06:54:41.810Z,80.80
2019-05-17T06:57:12.844Z,79.80
2019-05-17T06:59:41.365Z,80.30
2019-05-17T07:02:10.511Z,79.90
2019-05-17T07:04:39.600Z,79.40
2019-05-17T07:07:27.110Z,79.20
2019-05-17T07:10:00.598Z,78.60
2019-05-17T07:12:30.720Z,79.30
2019-05-17T07:15:01.699Z,79.50
2019-05-17T07:17:30.516Z,79.60
2019-05-17T07:19:59.849Z,78.90
2019-05-17T07:22:29.703Z,79.10
2019-05-17T07:24:59.798Z,78.90
2019-05-17T07:27:39.770Z,79.10
2019-05-17T07:29:59.348Z,78.90
2019-05-17T07:32:29.698Z,78.10
2019-05-17T07:35:00.002Z,78.20
2019-05-17T07:37:30.364Z,78.30
2019-05-17T07:40:04.895Z,77.70
2019-05-17T07:42:29.946Z,78.00
2019-05-17T07:45:00.508Z,77.60
2019-05-17T07:47:29.517Z,77.10
2019-05-17T07:50:01.119Z,77.30
2019-05-17T07:52:29.991Z,77.50
2019-05-17T07:55:02.439Z,77.50
2019-05-17T07:57:29.951Z,77.50
2019-05-17T07:59:59.930Z,76.50
2019-05-17T08:02:30.687Z,76.60
2019-05-17T08:05:00.529Z,76.20
2019-05-17T08:07:30.148Z,75.70
2019-05-17T08:10:00.124Z,75.40
2019-05-17T08:12:30.527Z,74.20
2019-05-17T08:14:59.974Z,73.80
2019-05-17T08:17:30.423Z,73.10
2019-05-17T08:20:00.621Z,72.60
2019-05-17T08:22:29.942Z,72.20
2019-05-17T08:25:00.033Z,71.60
2019-05-17T08:27:29.675Z,71.50
2019-05-17T08:29:59.759Z,71.30
2019-05-17T08:32:31.377Z,71.30
2019-05-17T08:35:00.396Z,70.40
2019-05-17T08:37:30.144Z,70.00
2019-05-17T08:40:00.135Z,69.50
2019-05-17T08:42:30.009Z,67.20
2019-05-17T08:45:00.296Z,65.30
2019-05-17T08:47:30.016Z,63.30
2019-05-17T08:50:00.515Z,62.10
2019-05-17T08:52:29.532Z,61.80
2019-05-17T08:55:00.193Z,62.20
2019-05-17T08:57:30.262Z,63.00
2019-05-17T09:00:00.775Z,63.00
2019-05-17T09:02:29.879Z,63.10
2019-05-17T09:05:00.485Z,63.80
2019-05-17T09:07:29.556Z,64.20
2019-05-17T09:09:58.436Z,64.90
2019-05-17T09:12:27.068Z,65.50
2019-05-17T09:14:55.808Z,65.40
2019-05-17T09:17:24.573Z,65.70
2019-05-17T09:19:54.418Z,65.60
2019-05-17T09:22:23.401Z,66.00
2019-05-17T09:24:52.164Z,66.60
2019-05-17T09:27:21.078Z,66.50
2019-05-17T09:29:49.973Z,66.90
2019-05-17T09:32:20.133Z,67.40
2019-05-17T09:34:49.832Z,66.80
2019-05-17T09:37:22.212Z,65.20
2019-05-17T09:39:49.434Z,63.00
2019-05-17T09:42:20.795Z,60.70
2019-05-17T09:44:49.682Z,58.60
2019-05-17T09:47:20.669Z,57.90
2019-05-17T09:49:50.167Z,57.70
2019-05-17T09:52:19.981Z,56.00
2019-05-17T09:54:50.512Z,56.20
2019-05-17T09:57:20.487Z,56.90
2019-05-17T09:59:49.644Z,58.30
2019-05-17T10:02:20.393Z,59.70
2019-05-17T10:04:50.236Z,61.70
2019-05-17T10:07:20.754Z,63.20
2019-05-17T10:09:50.992Z,63.50
2019-05-17T10:12:20.276Z,63.60
2019-05-17T10:14:49.825Z,63.70
2019-05-17T10:17:21.031Z,64.10
2019-05-17T10:19:49.494Z,62.90
2019-05-17T10:22:20.043Z,60.80
2019-05-17T10:24:49.013Z,60.60
2019-05-17T10:27:19.638Z,60.60
2019-05-17T10:29:50.114Z,62.00
2019-05-17T10:32:20.483Z,62.30
2019-05-17T10:34:49.506Z,63.00
2019-05-17T10:37:20.312Z,63.00
2019-05-17T10:39:50.268Z,63.00
2019-05-17T10:42:20.932Z,64.20
2019-05-17T10:44:51.077Z,65.20
2019-05-17T10:47:20.189Z,65.70
2019-05-17T10:49:49.629Z,66.50
2019-05-17T10:52:20.330Z,66.00
2019-05-17T10:54:49.195Z,65.50
2019-05-17T10:57:19.434Z,63.30
2019-05-17T10:59:49.972Z,61.80
2019-05-17T11:02:19.657Z,61.30
2019-05-17T11:04:50.560Z,61.90
2019-05-17T11:07:20.223Z,62.20
2019-05-17T11:09:50.819Z,61.80
2019-05-17T11:12:19.512Z,61.90
2019-05-17T11:14:52.550Z,61.70
2019-05-17T11:17:18.831Z,61.80
2019-05-17T11:19:47.642Z,61.40
2019-05-17T11:22:16.533Z,61.30
2019-05-17T11:24:45.219Z,61.50
2019-05-17T11:27:14.389Z,62.00
2019-05-17T11:29:43.207Z,63.10
2019-05-17T11:32:12.098Z,64.40
2019-05-17T11:34:41.090Z,65.50
2019-05-17T11:37:09.887Z,65.50
2019-05-17T11:39:38.664Z,65.40
2019-05-17T11:42:07.451Z,65.40
2019-05-17T11:44:36.241Z,64.90
2019-05-17T11:47:05.211Z,65.00
2019-05-17T11:49:34.023Z,64.40
2019-05-17T11:52:02.814Z,64.40
2019-05-17T11:54:31.705Z,63.90
2019-05-17T11:57:00.466Z,63.60
2019-05-17T11:59:29.251Z,63.60
2019-05-17T12:01:58.170Z,63.10
2019-05-17T12:04:26.958Z,62.10
2019-05-17T12:06:55.750Z,60.80
2019-05-17T12:09:36.428Z,60.60
2019-05-17T12:11:55.066Z,60.20
2019-05-17T12:14:23.831Z,60.80
2019-05-17T12:16:52.713Z,60.40
2019-05-17T12:19:21.549Z,60.40
2019-05-17T12:21:50.314Z,59.70
2019-05-17T12:24:19.296Z,59.80
2019-05-17T12:26:48.074Z,59.50
2019-05-17T12:29:16.802Z,59.80
2019-05-17T12:31:45.570Z,59.50
2019-05-17T12:34:14.362Z,59.20
2019-05-17T12:36:43.144Z,59.30
2019-05-17T12:39:11.935Z,59.70
2019-05-17T12:41:40.754Z,59.90
2019-05-17T12:44:09.514Z,59.70
2019-05-17T12:46:38.304Z,59.60
2019-05-17T12:49:07.095Z,59.20
2019-05-17T12:51:35.875Z,58.30
2019-05-17T12:54:04.766Z,58.20
2019-05-17T12:56:33.513Z,57.90
2019-05-17T12:59:02.239Z,57.30
2019-05-17T13:01:31.231Z,56.70
2019-05-17T13:04:00.224Z,56.60
2019-05-17T13:06:29.015Z,56.00
2019-05-17T13:08:57.892Z,55.80
2019-05-17T13:11:26.703Z,55.10
2019-05-17T13:13:55.479Z,54.40
2019-05-17T13:16:24.678Z,54.50
2019-05-17T13:18:55.904Z,54.00
2019-05-17T13:21:24.790Z,54.70
2019-05-17T13:23:53.573Z,55.50
2019-05-17T13:26:22.494Z,56.60
2019-05-17T13:28:51.281Z,56.90
2019-05-17T13:31:20.280Z,57.20
2019-05-17T13:33:49.879Z,58.20
2019-05-17T13:36:18.771Z,58.70
2019-05-17T13:38:47.663Z,59.00
2019-05-17T13:41:16.453Z,59.40
2019-05-17T13:43:45.242Z,59.80
2019-05-17T13:46:14.316Z,60.40
2019-05-17T13:48:43.336Z,61.10
2019-05-17T13:51:12.118Z,60.70
2019-05-17T13:53:41.005Z,60.40
2019-05-17T13:56:09.795Z,61.60
2019-05-17T13:58:38.581Z,62.00
2019-05-17T14:01:07.351Z,61.80
2019-05-17T14:03:36.403Z,61.50
2019-05-17T14:06:05.360Z,60.70
2019-05-17T14:08:34.151Z,60.80
2019-05-17T14:11:03.068Z,61.00
2019-05-17T14:13:32.016Z,60.40
2019-05-17T14:16:00.820Z,60.00
2019-05-17T14:18:29.503Z,59.90
2019-05-17T14:20:58.389Z,59.90
2019-05-17T14:23:27.282Z,59.90
2019-05-17T14:25:56.071Z,59.70
2019-05-17T14:28:24.959Z,59.40
2019-05-17T14:30:53.851Z,59.70
2019-05-17T14:33:22.639Z,59.80
2019-05-17T14:35:51.426Z,59.70
2019-05-17T14:38:20.222Z,59.30
2019-05-17T14:41:07.185Z,59.10
2019-05-17T14:43:19.545Z,59.50
2019-05-17T14:45:48.272Z,59.50
2019-05-17T14:48:17.107Z,59.20
2019-05-17T14:50:46.002Z,59.60
2019-05-17T14:53:14.787Z,59.40
2019-05-17T14:55:43.479Z,59.60
2019-05-17T14:58:12.371Z,59.90
2019-05-17T15:00:41.623Z,59.90
2019-05-17T15:03:10.369Z,60.00
2019-05-17T15:05:39.123Z,59.60
2019-05-17T15:08:08.205Z,60.30
2019-05-17T15:10:37.094Z,59.60
2019-05-17T15:13:05.992Z,59.10
2019-05-17T15:15:34.903Z,59.10
2019-05-17T15:18:03.797Z,59.20
2019-05-17T15:20:32.558Z,59.80
2019-05-17T15:23:02.655Z,59.90
2019-05-17T15:25:31.603Z,59.60
2019-05-17T15:28:00.356Z,58.80
2019-05-17T15:30:29.271Z,58.80
2019-05-17T15:32:58.342Z,58.10
2019-05-17T15:35:27.360Z,58.20
2019-05-17T15:37:56.179Z,58.30
2019-05-17T15:40:25.038Z,58.50
2019-05-17T15:42:54.753Z,58.70
2019-05-17T15:45:23.740Z,59.60
2019-05-17T15:47:52.537Z,60.30
2019-05-17T15:50:21.528Z,60.00
2019-05-17T15:52:51.822Z,60.10
2019-05-17T15:55:20.862Z,60.60
2019-05-17T15:57:50.098Z,60.70
2019-05-17T16:00:19.219Z,61.40
2019-05-17T16:02:48.110Z,61.70
2019-05-17T16:05:17.552Z,61.10
2019-05-17T16:07:46.524Z,61.80
2019-05-17T16:10:15.859Z,62.10
2019-05-17T16:13:00.920Z,62.00
2019-05-17T16:15:15.534Z,62.60
2019-05-17T16:17:44.442Z,63.10
2019-05-17T16:20:16.716Z,63.20
2019-05-17T16:22:44.992Z,63.70
2019-05-17T16:25:13.773Z,64.80
2019-05-17T16:27:42.664Z,64.10
2019-05-17T16:30:11.962Z,63.60
2019-05-17T16:32:40.769Z,63.30
2019-05-17T16:35:09.959Z,63.20
2019-05-17T16:37:38.740Z,63.20
2019-05-17T16:40:07.832Z,63.60
2019-05-17T16:42:36.610Z,64.40
2019-05-17T16:45:09.206Z,64.30
2019-05-17T16:47:39.093Z,64.50
2019-05-17T16:50:08.928Z,64.70
2019-05-17T16:52:37.728Z,65.40
2019-05-17T16:55:07.015Z,65.20
2019-05-17T16:57:42.851Z,65.10
2019-05-17T17:00:32.135Z,65.20
2019-05-17T17:03:05.177Z,65.40
2019-05-17T17:05:37.535Z,65.10
2019-05-17T17:08:13.482Z,64.70
2019-05-17T17:10:45.596Z,64.60
2019-05-17T17:13:16.092Z,64.80
2019-05-17T17:15:45.555Z,64.60
2019-05-17T17:18:28.027Z,64.90
2019-05-17T17:21:00.400Z,64.70
2019-05-17T17:23:41.591Z,65.40
2019-05-17T17:26:10.504Z,65.60
2019-05-17T17:28:39.531Z,65.30
2019-05-17T17:31:11.350Z,65.00
2019-05-17T17:33:40.244Z,65.20
2019-05-17T17:36:09.543Z,66.10
2019-05-17T17:38:40.403Z,66.00
2019-05-17T17:41:09.475Z,65.70
2019-05-17T17:43:38.841Z,65.60
2019-05-17T17:46:07.768Z,65.80
2019-05-17T17:48:36.540Z,65.60
2019-05-17T17:51:08.917Z,65.60
2019-05-17T17:53:38.025Z,65.60
2019-05-17T17:56:06.787Z,66.00
2019-05-17T17:58:35.708Z,66.40
2019-05-17T18:01:04.533Z,66.60
2019-05-17T18:03:34.401Z,66.70
2019-05-17T18:06:03.318Z,67.00
2019-05-17T18:08:34.612Z,66.80
2019-05-17T18:11:04.581Z,67.50
2019-05-17T18:13:33.566Z,67.70
2019-05-17T18:16:07.996Z,68.00
2019-05-17T18:18:36.968Z,67.80
2019-05-17T18:21:05.829Z,67.90
2019-05-17T18:23:34.746Z,68.20
2019-05-17T18:26:04.157Z,68.30
2019-05-17T18:28:33.152Z,68.20
2019-05-17T18:31:02.033Z,68.90
2019-05-17T18:33:30.928Z,69.20
2019-05-17T18:36:03.654Z,69.60
2019-05-17T18:38:42.729Z,69.10
2019-05-17T18:41:11.733Z,68.90
2019-05-17T18:43:40.484Z,68.50
2019-05-17T18:46:10.026Z,68.60
2019-05-17T18:48:38.910Z,68.90
2019-05-17T18:51:07.805Z,69.00
2019-05-17T18:53:36.566Z,69.30
2019-05-17T18:56:05.479Z,69.10
2019-05-17T18:58:34.592Z,68.70
2019-05-17T19:01:03.751Z,68.80
2019-05-17T19:03:32.564Z,69.60
2019-05-17T19:06:01.356Z,69.50
2019-05-17T19:08:30.257Z,70.00
2019-05-17T19:10:59.139Z,69.90
2019-05-17T19:13:28.441Z,69.60
2019-05-17T19:15:57.322Z,69.80
2019-05-17T19:18:26.743Z,70.30
2019-05-17T19:20:56.997Z,70.20
2019-05-17T19:23:27.577Z,70.30
2019-05-17T19:25:56.505Z,69.90
2019-05-17T19:28:25.673Z,70.50
2019-05-17T19:30:54.632Z,71.40
2019-05-17T19:33:23.537Z,72.30
2019-05-17T19:35:52.583Z,71.90
2019-05-17T19:38:21.410Z,72.10
2019-05-17T19:40:50.347Z,71.60
2019-05-17T19:43:19.323Z,71.70
2019-05-17T19:45:49.239Z,72.20
2019-05-17T19:48:19.851Z,72.70
2019-05-17T19:50:49.058Z,73.10
2019-05-17T19:53:18.187Z,72.70
2019-05-17T19:55:47.200Z,73.20
2019-05-17T19:58:15.950Z,74.20
2019-05-17T20:00:44.825Z,74.90
2019-05-17T20:03:13.598Z,74.30
2019-05-17T20:05:42.506Z,74.90
2019-05-17T20:08:11.393Z,75.20
2019-05-17T20:10:40.185Z,75.20
2019-05-17T20:13:09.075Z,75.70
2019-05-17T20:15:41.596Z,76.30
2019-05-17T20:18:10.832Z,76.70
2019-05-17T20:20:43.905Z,77.10
2019-05-17T20:23:15.857Z,77.90
2019-05-17T20:25:50.590Z,78.00
2019-05-17T20:28:25.019Z,78.10
2019-05-17T20:30:57.361Z,77.20
2019-05-17T20:33:30.343Z,77.50
2019-05-17T20:36:04.327Z,77.90
2019-05-17T20:38:36.961Z,78.30
2019-05-17T20:41:07.833Z,79.40
2019-05-17T20:43:40.715Z,80.40
2019-05-17T20:46:14.389Z,79.60
2019-05-17T20:48:43.590Z,79.80
2019-05-17T20:51:12.481Z,79.30
2019-05-17T20:53:41.377Z,80.30
2019-05-17T20:56:10.187Z,79.90
2019-05-17T20:58:39.080Z,81.00
2019-05-17T21:01:07.865Z,80.20
2019-05-17T21:03:36.655Z,80.40
2019-05-17T21:06:05.441Z,80.40
2019-05-17T21:08:45.478Z,80.50
2019-05-17T21:11:05.489Z,80.40
2019-05-17T21:13:34.362Z,80.00
2019-05-17T21:16:03.255Z,80.80
2019-05-17T21:18:32.040Z,80.80
2019-05-17T21:21:00.924Z,80.20
2019-05-17T21:23:29.702Z,79.60
2019-05-17T21:25:59.388Z,79.50
2019-05-17T21:28:28.398Z,79.60
2019-05-17T21:30:57.214Z,79.90
2019-05-17T21:33:25.977Z,79.90
2019-05-17T21:35:54.890Z,79.70
2019-05-17T21:38:23.781Z,79.60
2019-05-17T21:40:52.574Z,79.70
2019-05-17T21:43:21.357Z,79.70
2019-05-17T21:46:02.587Z,79.90
2019-05-17T21:48:20.581Z,79.80
2019-05-17T21:50:49.346Z,79.90
2019-05-17T21:53:18.240Z,79.70
2019-05-17T21:55:47.042Z,79.70
2019-05-17T21:58:19.702Z,79.50
2019-05-17T22:00:53.831Z,79.40
2019-05-17T22:03:22.616Z,79.70
2019-05-17T22:05:51.484Z,79.70
2019-05-17T22:08:20.336Z,79.30
2019-05-17T22:10:49.905Z,79.10
2019-05-17T22:13:18.665Z,79.40
2019-05-17T22:15:47.480Z,79.50
2019-05-17T22:18:18.644Z,79.90
2019-05-17T22:20:46.800Z,80.60
2019-05-17T22:23:15.592Z,81.00
2019-05-17T22:25:44.344Z,81.30
2019-05-17T22:28:13.263Z,81.30
2019-05-17T22:30:42.132Z,81.40
2019-05-17T22:33:10.942Z,81.70
2019-05-17T22:35:39.730Z,81.50
2019-05-17T22:38:08.520Z,80.80
2019-05-17T22:40:37.307Z,81.00
2019-05-17T22:43:06.073Z,80.70
2019-05-17T22:45:35.089Z,81.10
2019-05-17T22:48:03.883Z,81.30
2019-05-17T22:50:32.637Z,81.30
2019-05-17T22:53:01.473Z,81.60
2019-05-17T22:55:30.421Z,81.70
2019-05-17T22:57:59.185Z,81.20
2019-05-17T23:00:28.021Z,81.00
2019-05-17T23:02:57.846Z,81.10
2019-05-17T23:05:26.737Z,81.90
2019-05-17T23:07:55.594Z,82.40
2019-05-17T23:10:24.507Z,82.10
2019-05-17T23:12:53.402Z,81.70
2019-05-17T23:15:22.371Z,82.20
2019-05-17T23:17:51.180Z,82.30
2019-05-17T23:20:20.049Z,82.30
2019-05-17T23:22:48.756Z,81.80
2019-05-17T23:25:17.545Z,81.60
2019-05-17T23:27:46.439Z,82.30
2019-05-17T23:30:15.401Z,82.80
2019-05-17T23:32:44.319Z,83.00
2019-05-17T23:35:13.721Z,82.80
2019-05-17T23:37:42.611Z,83.00
2019-05-17T23:40:11.578Z,82.80
2019-05-17T23:42:40.391Z,82.90
2019-05-17T23:45:09.529Z,83.40
2019-05-17T23:47:38.275Z,83.90
2019-05-17T23:50:10.361Z,84.00
2019-05-17T23:52:39.129Z,83.60
2019-05-17T23:55:08.673Z,84.20
2019-05-17T23:57:37.507Z,84.70
